sensor_id;sensor_type;location;lat;lon;timestamp;P1;durP1;ratioP1;P2;durP2;ratioP2
77326;SDS011;66399;52.322;20.980;2023-03-14T00:00:51;7.50;;;3.60;;
77326;SDS011;66399;52.322;20.980;2023-03-14T00:04:57;6.80;;;3.20;;
77326;SDS011;66399;52.322;20.980;2023-03-14T00:09:03;6.30;;;2.60;;
77326;SDS011;66399;52.322;20.980;2023-03-14T00:13:08;3.90;;;2.10;;
77326;SDS011;66399;52.322;20.980;2023-03-14T00:17:13;6.10;;;2.80;;
77326;SDS011;66399;52.322;20.980;2023-03-14T00:21:19;6.40;;;2.80;;
77326;SDS011;66399;52.322;20.980;2023-03-14T00:25:24;6.70;;;3.00;;
77326;SDS011;66399;52.322;20.980;2023-03-14T00:29:29;5.60;;;2.70;;
77326;SDS011;66399;52.322;20.980;2023-03-14T00:33:34;4.80;;;2.90;;
77326;SDS011;66399;52.322;20.980;2023-03-14T00:37:40;7.50;;;3.20;;
77326;SDS011;66399;52.322;20.980;2023-03-14T00:41:45;7.90;;;3.00;;
77326;SDS011;66399;52.322;20.980;2023-03-14T00:45:51;5.70;;;3.10;;
77326;SDS011;66399;52.322;20.980;2023-03-14T00:49:57;6.70;;;2.90;;
77326;SDS011;66399;52.322;20.980;2023-03-14T00:54:02;5.80;;;2.80;;
77326;SDS011;66399;52.322;20.980;2023-03-14T00:58:08;6.80;;;3.10;;
77326;SDS011;66399;52.322;20.980;2023-03-14T01:02:13;6.50;;;3.20;;
77326;SDS011;66399;52.322;20.980;2023-03-14T01:06:19;7.80;;;3.10;;
77326;SDS011;66399;52.322;20.980;2023-03-14T01:10:25;5.80;;;2.80;;
77326;SDS011;66399;52.322;20.980;2023-03-14T01:14:30;7.40;;;2.90;;
77326;SDS011;66399;52.322;20.980;2023-03-14T01:18:35;9.60;;;3.30;;
77326;SDS011;66399;52.322;20.980;2023-03-14T01:22:41;6.80;;;3.00;;
77326;SDS011;66399;52.322;20.980;2023-03-14T01:26:46;6.80;;;3.40;;
77326;SDS011;66399;52.322;20.980;2023-03-14T01:30:52;6.10;;;2.90;;
77326;SDS011;66399;52.322;20.980;2023-03-14T01:34:57;7.60;;;3.20;;
77326;SDS011;66399;52.322;20.980;2023-03-14T01:39:03;6.10;;;2.80;;
77326;SDS011;66399;52.322;20.980;2023-03-14T01:43:14;7.60;;;3.30;;
77326;SDS011;66399;52.322;20.980;2023-03-14T01:47:20;5.90;;;3.00;;
77326;SDS011;66399;52.322;20.980;2023-03-14T01:51:27;7.50;;;3.10;;
77326;SDS011;66399;52.322;20.980;2023-03-14T01:55:33;6.50;;;3.10;;
77326;SDS011;66399;52.322;20.980;2023-03-14T02:03:45;8.60;;;3.30;;
77326;SDS011;66399;52.322;20.980;2023-03-14T02:07:52;9.90;;;3.10;;
77326;SDS011;66399;52.322;20.980;2023-03-14T02:11:58;8.40;;;3.50;;
77326;SDS011;66399;52.322;20.980;2023-03-14T02:16:04;7.10;;;3.30;;
77326;SDS011;66399;52.322;20.980;2023-03-14T02:20:19;5.70;;;2.80;;
77326;SDS011;66399;52.322;20.980;2023-03-14T02:24:27;6.60;;;3.20;;
77326;SDS011;66399;52.322;20.980;2023-03-14T02:28:35;4.70;;;2.40;;
77326;SDS011;66399;52.322;20.980;2023-03-14T02:32:43;6.60;;;3.00;;
77326;SDS011;66399;52.322;20.980;2023-03-14T02:36:51;6.30;;;3.00;;
77326;SDS011;66399;52.322;20.980;2023-03-14T02:40:56;7.10;;;2.90;;
77326;SDS011;66399;52.322;20.980;2023-03-14T02:45:34;7.80;;;2.80;;
77326;SDS011;66399;52.322;20.980;2023-03-14T02:49:33;5.40;;;2.50;;
77326;SDS011;66399;52.322;20.980;2023-03-14T02:53:39;6.00;;;2.90;;
77326;SDS011;66399;52.322;20.980;2023-03-14T02:57:45;6.80;;;3.10;;
77326;SDS011;66399;52.322;20.980;2023-03-14T03:01:50;7.10;;;2.90;;
77326;SDS011;66399;52.322;20.980;2023-03-14T03:05:55;7.30;;;2.80;;
77326;SDS011;66399;52.322;20.980;2023-03-14T03:14:04;6.10;;;3.10;;
77326;SDS011;66399;52.322;20.980;2023-03-14T03:18:10;6.10;;;2.60;;
77326;SDS011;66399;52.322;20.980;2023-03-14T03:22:15;5.90;;;3.00;;
77326;SDS011;66399;52.322;20.980;2023-03-14T03:26:20;4.90;;;2.70;;
77326;SDS011;66399;52.322;20.980;2023-03-14T03:30:25;6.90;;;2.50;;
77326;SDS011;66399;52.322;20.980;2023-03-14T03:34:31;6.50;;;2.70;;
77326;SDS011;66399;52.322;20.980;2023-03-14T03:38:36;6.20;;;3.00;;
77326;SDS011;66399;52.322;20.980;2023-03-14T03:42:41;6.60;;;2.40;;
77326;SDS011;66399;52.322;20.980;2023-03-14T03:46:46;4.00;;;2.10;;
77326;SDS011;66399;52.322;20.980;2023-03-14T03:50:51;4.20;;;2.30;;
77326;SDS011;66399;52.322;20.980;2023-03-14T03:54:57;5.80;;;2.40;;
77326;SDS011;66399;52.322;20.980;2023-03-14T04:03:06;4.80;;;2.20;;
77326;SDS011;66399;52.322;20.980;2023-03-14T04:07:11;6.40;;;2.80;;
77326;SDS011;66399;52.322;20.980;2023-03-14T04:11:17;5.30;;;2.40;;
77326;SDS011;66399;52.322;20.980;2023-03-14T04:15:23;4.80;;;2.40;;
77326;SDS011;66399;52.322;20.980;2023-03-14T04:19:28;5.90;;;2.60;;
77326;SDS011;66399;52.322;20.980;2023-03-14T04:23:33;5.20;;;2.30;;
77326;SDS011;66399;52.322;20.980;2023-03-14T04:27:38;4.20;;;2.20;;
77326;SDS011;66399;52.322;20.980;2023-03-14T04:31:43;6.20;;;2.60;;
77326;SDS011;66399;52.322;20.980;2023-03-14T04:35:49;5.10;;;2.30;;
77326;SDS011;66399;52.322;20.980;2023-03-14T04:39:57;5.30;;;2.40;;
77326;SDS011;66399;52.322;20.980;2023-03-14T04:44:03;6.40;;;2.00;;
77326;SDS011;66399;52.322;20.980;2023-03-14T04:48:08;4.50;;;1.80;;
77326;SDS011;66399;52.322;20.980;2023-03-14T04:52:13;4.70;;;2.10;;
77326;SDS011;66399;52.322;20.980;2023-03-14T04:56:19;5.80;;;2.20;;
77326;SDS011;66399;52.322;20.980;2023-03-14T05:00:24;4.30;;;2.10;;
77326;SDS011;66399;52.322;20.980;2023-03-14T05:04:29;4.50;;;2.20;;
77326;SDS011;66399;52.322;20.980;2023-03-14T05:08:36;4.00;;;2.10;;
77326;SDS011;66399;52.322;20.980;2023-03-14T05:12:42;4.00;;;2.20;;
77326;SDS011;66399;52.322;20.980;2023-03-14T05:16:47;4.10;;;2.00;;
77326;SDS011;66399;52.322;20.980;2023-03-14T05:20:52;4.20;;;1.80;;
77326;SDS011;66399;52.322;20.980;2023-03-14T05:24:57;4.30;;;1.70;;
77326;SDS011;66399;52.322;20.980;2023-03-14T05:29:03;4.70;;;2.20;;
77326;SDS011;66399;52.322;20.980;2023-03-14T05:33:08;4.90;;;2.00;;
77326;SDS011;66399;52.322;20.980;2023-03-14T05:37:13;4.60;;;1.90;;
77326;SDS011;66399;52.322;20.980;2023-03-14T05:41:20;4.00;;;1.80;;
77326;SDS011;66399;52.322;20.980;2023-03-14T05:45:25;4.30;;;1.90;;
77326;SDS011;66399;52.322;20.980;2023-03-14T05:49:30;5.10;;;2.30;;
77326;SDS011;66399;52.322;20.980;2023-03-14T05:53:36;4.50;;;2.20;;
77326;SDS011;66399;52.322;20.980;2023-03-14T05:57:41;6.90;;;2.10;;
77326;SDS011;66399;52.322;20.980;2023-03-14T06:01:47;3.90;;;1.90;;
77326;SDS011;66399;52.322;20.980;2023-03-14T06:05:53;7.20;;;2.10;;
77326;SDS011;66399;52.322;20.980;2023-03-14T06:09:58;5.30;;;2.00;;
77326;SDS011;66399;52.322;20.980;2023-03-14T06:14:03;5.50;;;2.10;;
77326;SDS011;66399;52.322;20.980;2023-03-14T06:18:08;3.90;;;1.90;;
77326;SDS011;66399;52.322;20.980;2023-03-14T06:22:14;6.10;;;2.00;;
77326;SDS011;66399;52.322;20.980;2023-03-14T06:26:19;4.00;;;1.70;;
77326;SDS011;66399;52.322;20.980;2023-03-14T06:30:24;4.30;;;2.00;;
77326;SDS011;66399;52.322;20.980;2023-03-14T06:34:30;3.40;;;1.90;;
77326;SDS011;66399;52.322;20.980;2023-03-14T06:38:35;4.10;;;1.90;;
77326;SDS011;66399;52.322;20.980;2023-03-14T06:42:40;3.70;;;1.70;;
77326;SDS011;66399;52.322;20.980;2023-03-14T06:46:45;4.90;;;1.90;;
77326;SDS011;66399;52.322;20.980;2023-03-14T06:50:52;5.90;;;2.20;;
77326;SDS011;66399;52.322;20.980;2023-03-14T06:54:57;4.50;;;1.90;;
77326;SDS011;66399;52.322;20.980;2023-03-14T06:59:05;5.80;;;2.30;;
77326;SDS011;66399;52.322;20.980;2023-03-14T07:03:11;5.00;;;2.40;;
77326;SDS011;66399;52.322;20.980;2023-03-14T07:07:17;5.40;;;2.40;;
77326;SDS011;66399;52.322;20.980;2023-03-14T07:11:23;4.90;;;2.40;;
77326;SDS011;66399;52.322;20.980;2023-03-14T07:15:28;8.20;;;2.90;;
77326;SDS011;66399;52.322;20.980;2023-03-14T07:19:34;5.50;;;2.30;;
77326;SDS011;66399;52.322;20.980;2023-03-14T07:23:39;5.60;;;2.60;;
77326;SDS011;66399;52.322;20.980;2023-03-14T07:27:45;6.70;;;2.70;;
77326;SDS011;66399;52.322;20.980;2023-03-14T07:31:50;7.10;;;2.90;;
77326;SDS011;66399;52.322;20.980;2023-03-14T07:35:55;5.70;;;2.90;;
77326;SDS011;66399;52.322;20.980;2023-03-14T07:40:02;5.30;;;2.60;;
77326;SDS011;66399;52.322;20.980;2023-03-14T07:44:11;5.10;;;2.30;;
77326;SDS011;66399;52.322;20.980;2023-03-14T07:48:16;4.90;;;2.70;;
77326;SDS011;66399;52.322;20.980;2023-03-14T07:52:21;4.90;;;3.10;;
77326;SDS011;66399;52.322;20.980;2023-03-14T07:56:28;5.90;;;2.60;;
77326;SDS011;66399;52.322;20.980;2023-03-14T08:00:37;6.30;;;3.00;;
77326;SDS011;66399;52.322;20.980;2023-03-14T08:04:42;7.20;;;3.20;;
77326;SDS011;66399;52.322;20.980;2023-03-14T08:08:48;5.40;;;3.00;;
77326;SDS011;66399;52.322;20.980;2023-03-14T08:12:54;6.60;;;2.80;;
77326;SDS011;66399;52.322;20.980;2023-03-14T08:17:00;5.90;;;2.60;;
77326;SDS011;66399;52.322;20.980;2023-03-14T08:21:06;5.00;;;2.60;;
77326;SDS011;66399;52.322;20.980;2023-03-14T08:25:11;6.50;;;3.00;;
77326;SDS011;66399;52.322;20.980;2023-03-14T08:29:16;5.40;;;2.90;;
77326;SDS011;66399;52.322;20.980;2023-03-14T08:33:22;6.60;;;2.60;;
77326;SDS011;66399;52.322;20.980;2023-03-14T08:37:27;5.40;;;2.90;;
77326;SDS011;66399;52.322;20.980;2023-03-14T08:41:32;6.60;;;3.20;;
77326;SDS011;66399;52.322;20.980;2023-03-14T08:45:38;5.70;;;2.50;;
77326;SDS011;66399;52.322;20.980;2023-03-14T08:49:44;5.90;;;2.80;;
77326;SDS011;66399;52.322;20.980;2023-03-14T08:53:49;6.10;;;2.80;;
77326;SDS011;66399;52.322;20.980;2023-03-14T08:57:54;5.30;;;2.90;;
77326;SDS011;66399;52.322;20.980;2023-03-14T09:01:59;9.10;;;3.10;;
77326;SDS011;66399;52.322;20.980;2023-03-14T09:06:08;5.10;;;2.80;;
77326;SDS011;66399;52.322;20.980;2023-03-14T09:10:13;5.70;;;2.70;;
77326;SDS011;66399;52.322;20.980;2023-03-14T09:14:18;6.20;;;2.80;;
77326;SDS011;66399;52.322;20.980;2023-03-14T09:18:25;6.10;;;3.10;;
77326;SDS011;66399;52.322;20.980;2023-03-14T09:22:31;5.60;;;2.70;;
77326;SDS011;66399;52.322;20.980;2023-03-14T09:26:36;4.40;;;2.60;;
77326;SDS011;66399;52.322;20.980;2023-03-14T09:30:42;9.20;;;3.00;;
77326;SDS011;66399;52.322;20.980;2023-03-14T09:34:47;4.50;;;2.50;;
77326;SDS011;66399;52.322;20.980;2023-03-14T09:38:52;6.00;;;2.70;;
77326;SDS011;66399;52.322;20.980;2023-03-14T09:42:57;5.30;;;2.80;;
77326;SDS011;66399;52.322;20.980;2023-03-14T09:47:05;5.40;;;2.70;;
77326;SDS011;66399;52.322;20.980;2023-03-14T09:51:13;10.50;;;2.60;;
77326;SDS011;66399;52.322;20.980;2023-03-14T09:55:19;4.90;;;2.40;;
77326;SDS011;66399;52.322;20.980;2023-03-14T09:59:26;8.10;;;2.80;;
77326;SDS011;66399;52.322;20.980;2023-03-14T10:03:33;5.40;;;2.80;;
77326;SDS011;66399;52.322;20.980;2023-03-14T10:07:38;5.50;;;2.60;;
77326;SDS011;66399;52.322;20.980;2023-03-14T10:11:43;5.90;;;3.00;;
77326;SDS011;66399;52.322;20.980;2023-03-14T10:15:51;5.00;;;2.50;;
77326;SDS011;66399;52.322;20.980;2023-03-14T10:19:57;4.50;;;2.50;;
77326;SDS011;66399;52.322;20.980;2023-03-14T10:24:09;4.90;;;2.60;;
77326;SDS011;66399;52.322;20.980;2023-03-14T10:28:22;4.70;;;2.50;;
77326;SDS011;66399;52.322;20.980;2023-03-14T10:32:33;5.40;;;2.70;;
77326;SDS011;66399;52.322;20.980;2023-03-14T10:36:39;5.00;;;2.30;;
77326;SDS011;66399;52.322;20.980;2023-03-14T10:40:47;5.20;;;2.90;;
77326;SDS011;66399;52.322;20.980;2023-03-14T10:44:56;5.20;;;2.70;;
77326;SDS011;66399;52.322;20.980;2023-03-14T10:49:05;5.40;;;2.80;;
77326;SDS011;66399;52.322;20.980;2023-03-14T10:53:11;4.70;;;2.60;;
77326;SDS011;66399;52.322;20.980;2023-03-14T10:57:18;6.50;;;2.40;;
77326;SDS011;66399;52.322;20.980;2023-03-14T11:05:46;5.80;;;2.60;;
77326;SDS011;66399;52.322;20.980;2023-03-14T11:09:56;3.80;;;2.20;;
77326;SDS011;66399;52.322;20.980;2023-03-14T11:14:07;3.80;;;2.20;;
77326;SDS011;66399;52.322;20.980;2023-03-14T11:18:18;5.40;;;2.70;;
77326;SDS011;66399;52.322;20.980;2023-03-14T11:22:50;5.40;;;2.70;;
77326;SDS011;66399;52.322;20.980;2023-03-14T11:27:03;4.60;;;2.40;;
77326;SDS011;66399;52.322;20.980;2023-03-14T11:31:13;6.20;;;3.00;;
77326;SDS011;66399;52.322;20.980;2023-03-14T11:35:22;5.50;;;2.70;;
77326;SDS011;66399;52.322;20.980;2023-03-14T11:39:34;6.50;;;2.70;;
77326;SDS011;66399;52.322;20.980;2023-03-14T11:43:41;4.80;;;2.50;;
77326;SDS011;66399;52.322;20.980;2023-03-14T11:47:51;6.20;;;2.80;;
77326;SDS011;66399;52.322;20.980;2023-03-14T11:51:59;6.20;;;2.90;;
77326;SDS011;66399;52.322;20.980;2023-03-14T11:56:08;5.10;;;2.80;;
77326;SDS011;66399;52.322;20.980;2023-03-14T12:00:17;5.20;;;2.90;;
77326;SDS011;66399;52.322;20.980;2023-03-14T12:04:25;6.30;;;3.10;;
77326;SDS011;66399;52.322;20.980;2023-03-14T12:08:39;5.50;;;3.00;;
77326;SDS011;66399;52.322;20.980;2023-03-14T12:12:47;5.30;;;2.70;;
77326;SDS011;66399;52.322;20.980;2023-03-14T12:16:56;7.70;;;3.40;;
77326;SDS011;66399;52.322;20.980;2023-03-14T12:21:03;5.40;;;3.10;;
77326;SDS011;66399;52.322;20.980;2023-03-14T12:25:15;7.20;;;3.30;;
77326;SDS011;66399;52.322;20.980;2023-03-14T12:29:21;5.60;;;2.90;;
77326;SDS011;66399;52.322;20.980;2023-03-14T12:33:30;7.90;;;2.90;;
77326;SDS011;66399;52.322;20.980;2023-03-14T12:37:36;6.20;;;3.30;;
77326;SDS011;66399;52.322;20.980;2023-03-14T12:41:48;7.00;;;3.10;;
77326;SDS011;66399;52.322;20.980;2023-03-14T12:46:08;6.60;;;3.30;;
77326;SDS011;66399;52.322;20.980;2023-03-14T12:50:15;7.00;;;3.40;;
77326;SDS011;66399;52.322;20.980;2023-03-14T12:54:23;8.30;;;3.50;;
77326;SDS011;66399;52.322;20.980;2023-03-14T12:58:33;6.90;;;3.40;;
77326;SDS011;66399;52.322;20.980;2023-03-14T13:02:41;7.20;;;3.80;;
77326;SDS011;66399;52.322;20.980;2023-03-14T13:06:51;6.30;;;3.00;;
77326;SDS011;66399;52.322;20.980;2023-03-14T13:10:58;7.30;;;3.10;;
77326;SDS011;66399;52.322;20.980;2023-03-14T13:15:11;6.80;;;3.30;;
77326;SDS011;66399;52.322;20.980;2023-03-14T13:19:18;8.20;;;3.70;;
77326;SDS011;66399;52.322;20.980;2023-03-14T13:23:25;6.80;;;3.10;;
77326;SDS011;66399;52.322;20.980;2023-03-14T13:27:31;10.40;;;3.70;;
77326;SDS011;66399;52.322;20.980;2023-03-14T13:31:37;7.00;;;3.10;;
77326;SDS011;66399;52.322;20.980;2023-03-14T13:35:48;7.10;;;2.80;;
77326;SDS011;66399;52.322;20.980;2023-03-14T13:39:55;6.60;;;3.30;;
77326;SDS011;66399;52.322;20.980;2023-03-14T13:44:02;10.40;;;4.20;;
77326;SDS011;66399;52.322;20.980;2023-03-14T13:48:09;8.00;;;3.10;;
77326;SDS011;66399;52.322;20.980;2023-03-14T13:52:27;5.90;;;3.90;;
77326;SDS011;66399;52.322;20.980;2023-03-14T13:56:33;7.40;;;3.80;;
77326;SDS011;66399;52.322;20.980;2023-03-14T14:00:38;6.70;;;3.40;;
77326;SDS011;66399;52.322;20.980;2023-03-14T14:04:43;9.50;;;3.80;;
77326;SDS011;66399;52.322;20.980;2023-03-14T14:08:49;7.90;;;3.70;;
77326;SDS011;66399;52.322;20.980;2023-03-14T14:12:55;6.10;;;3.30;;
77326;SDS011;66399;52.322;20.980;2023-03-14T14:17:03;8.10;;;3.50;;
77326;SDS011;66399;52.322;20.980;2023-03-14T14:21:10;8.60;;;3.90;;
77326;SDS011;66399;52.322;20.980;2023-03-14T14:25:17;7.40;;;3.40;;
77326;SDS011;66399;52.322;20.980;2023-03-14T14:29:25;7.30;;;3.00;;
77326;SDS011;66399;52.322;20.980;2023-03-14T14:33:37;5.90;;;3.40;;
77326;SDS011;66399;52.322;20.980;2023-03-14T14:37:43;7.60;;;3.20;;
77326;SDS011;66399;52.322;20.980;2023-03-14T14:41:49;8.30;;;3.40;;
77326;SDS011;66399;52.322;20.980;2023-03-14T14:45:56;6.90;;;3.50;;
77326;SDS011;66399;52.322;20.980;2023-03-14T14:50:03;8.80;;;3.60;;
77326;SDS011;66399;52.322;20.980;2023-03-14T14:54:13;6.70;;;3.50;;
77326;SDS011;66399;52.322;20.980;2023-03-14T14:58:20;8.90;;;4.30;;
77326;SDS011;66399;52.322;20.980;2023-03-14T15:02:29;7.20;;;4.30;;
77326;SDS011;66399;52.322;20.980;2023-03-14T15:06:34;8.40;;;4.10;;
77326;SDS011;66399;52.322;20.980;2023-03-14T15:10:40;7.70;;;4.30;;
77326;SDS011;66399;52.322;20.980;2023-03-14T15:14:45;7.30;;;3.70;;
77326;SDS011;66399;52.322;20.980;2023-03-14T15:18:52;9.70;;;3.90;;
77326;SDS011;66399;52.322;20.980;2023-03-14T15:22:58;6.70;;;3.40;;
77326;SDS011;66399;52.322;20.980;2023-03-14T15:27:04;6.50;;;3.20;;
77326;SDS011;66399;52.322;20.980;2023-03-14T15:31:10;6.80;;;3.30;;
77326;SDS011;66399;52.322;20.980;2023-03-14T15:35:16;8.00;;;3.60;;
77326;SDS011;66399;52.322;20.980;2023-03-14T15:39:21;6.00;;;3.20;;
77326;SDS011;66399;52.322;20.980;2023-03-14T15:47:30;6.40;;;3.30;;
77326;SDS011;66399;52.322;20.980;2023-03-14T15:51:36;6.10;;;3.00;;
77326;SDS011;66399;52.322;20.980;2023-03-14T15:55:41;6.80;;;3.20;;
77326;SDS011;66399;52.322;20.980;2023-03-14T15:59:47;6.80;;;3.00;;
77326;SDS011;66399;52.322;20.980;2023-03-14T16:07:56;5.00;;;3.40;;
77326;SDS011;66399;52.322;20.980;2023-03-14T16:16:07;6.50;;;2.90;;
77326;SDS011;66399;52.322;20.980;2023-03-14T16:20:13;8.30;;;3.50;;
77326;SDS011;66399;52.322;20.980;2023-03-14T16:24:18;7.70;;;4.00;;
77326;SDS011;66399;52.322;20.980;2023-03-14T16:32:27;5.90;;;3.10;;
77326;SDS011;66399;52.322;20.980;2023-03-14T16:36:32;9.70;;;4.00;;
77326;SDS011;66399;52.322;20.980;2023-03-14T16:40:38;6.20;;;3.10;;
77326;SDS011;66399;52.322;20.980;2023-03-14T16:44:43;7.40;;;3.80;;
77326;SDS011;66399;52.322;20.980;2023-03-14T16:48:48;9.20;;;4.50;;
77326;SDS011;66399;52.322;20.980;2023-03-14T16:56:58;8.30;;;3.30;;
77326;SDS011;66399;52.322;20.980;2023-03-14T17:01:04;8.70;;;3.90;;
77326;SDS011;66399;52.322;20.980;2023-03-14T17:05:14;9.40;;;3.60;;
77326;SDS011;66399;52.322;20.980;2023-03-14T17:13:23;5.50;;;3.00;;
77326;SDS011;66399;52.322;20.980;2023-03-14T17:17:30;6.50;;;3.40;;
77326;SDS011;66399;52.322;20.980;2023-03-14T17:21:35;7.40;;;3.50;;
77326;SDS011;66399;52.322;20.980;2023-03-14T17:25:40;5.90;;;3.70;;
77326;SDS011;66399;52.322;20.980;2023-03-14T17:29:46;6.80;;;3.10;;
77326;SDS011;66399;52.322;20.980;2023-03-14T17:33:51;6.50;;;2.80;;
77326;SDS011;66399;52.322;20.980;2023-03-14T17:37:58;7.20;;;3.30;;
77326;SDS011;66399;52.322;20.980;2023-03-14T17:42:03;6.10;;;3.20;;
77326;SDS011;66399;52.322;20.980;2023-03-14T17:46:09;9.50;;;3.70;;
77326;SDS011;66399;52.322;20.980;2023-03-14T17:50:18;6.30;;;3.60;;
77326;SDS011;66399;52.322;20.980;2023-03-14T17:54:25;6.40;;;3.50;;
77326;SDS011;66399;52.322;20.980;2023-03-14T17:58:30;6.60;;;3.40;;
77326;SDS011;66399;52.322;20.980;2023-03-14T18:02:37;8.70;;;4.00;;
77326;SDS011;66399;52.322;20.980;2023-03-14T18:06:43;8.20;;;3.10;;
77326;SDS011;66399;52.322;20.980;2023-03-14T18:10:53;5.90;;;3.10;;
77326;SDS011;66399;52.322;20.980;2023-03-14T18:14:58;7.50;;;3.80;;
77326;SDS011;66399;52.322;20.980;2023-03-14T18:19:04;6.50;;;3.70;;
77326;SDS011;66399;52.322;20.980;2023-03-14T18:23:09;8.10;;;3.50;;
77326;SDS011;66399;52.322;20.980;2023-03-14T18:27:14;6.40;;;3.10;;
77326;SDS011;66399;52.322;20.980;2023-03-14T18:31:20;6.60;;;3.50;;
77326;SDS011;66399;52.322;20.980;2023-03-14T18:35:28;6.50;;;3.40;;
77326;SDS011;66399;52.322;20.980;2023-03-14T18:39:33;8.30;;;3.60;;
77326;SDS011;66399;52.322;20.980;2023-03-14T18:43:38;10.00;;;4.20;;
77326;SDS011;66399;52.322;20.980;2023-03-14T18:51:47;7.20;;;3.70;;
77326;SDS011;66399;52.322;20.980;2023-03-14T18:55:54;7.50;;;3.30;;
77326;SDS011;66399;52.322;20.980;2023-03-14T18:59:59;7.70;;;3.30;;
77326;SDS011;66399;52.322;20.980;2023-03-14T19:04:05;8.10;;;3.10;;
77326;SDS011;66399;52.322;20.980;2023-03-14T19:08:13;6.40;;;2.90;;
77326;SDS011;66399;52.322;20.980;2023-03-14T19:16:22;7.30;;;2.80;;
77326;SDS011;66399;52.322;20.980;2023-03-14T19:20:28;6.80;;;3.20;;
77326;SDS011;66399;52.322;20.980;2023-03-14T19:28:38;6.10;;;2.90;;
77326;SDS011;66399;52.322;20.980;2023-03-14T19:32:43;6.00;;;2.50;;
77326;SDS011;66399;52.322;20.980;2023-03-14T19:40:54;7.30;;;3.40;;
77326;SDS011;66399;52.322;20.980;2023-03-14T19:44:59;5.70;;;3.10;;
77326;SDS011;66399;52.322;20.980;2023-03-14T19:53:09;6.30;;;3.00;;
77326;SDS011;66399;52.322;20.980;2023-03-14T19:57:16;6.20;;;2.80;;
77326;SDS011;66399;52.322;20.980;2023-03-14T20:01:21;6.80;;;3.00;;
77326;SDS011;66399;52.322;20.980;2023-03-14T20:05:27;7.30;;;3.30;;
77326;SDS011;66399;52.322;20.980;2023-03-14T20:09:32;6.30;;;3.00;;
77326;SDS011;66399;52.322;20.980;2023-03-14T20:13:38;8.40;;;3.30;;
77326;SDS011;66399;52.322;20.980;2023-03-14T20:21:47;6.10;;;2.90;;
77326;SDS011;66399;52.322;20.980;2023-03-14T20:25:53;7.70;;;3.00;;
77326;SDS011;66399;52.322;20.980;2023-03-14T20:29:58;7.90;;;3.30;;
77326;SDS011;66399;52.322;20.980;2023-03-14T20:34:05;8.90;;;3.40;;
77326;SDS011;66399;52.322;20.980;2023-03-14T20:38:10;7.30;;;3.80;;
77326;SDS011;66399;52.322;20.980;2023-03-14T20:42:15;9.60;;;3.80;;
77326;SDS011;66399;52.322;20.980;2023-03-14T20:46:21;6.90;;;3.40;;
77326;SDS011;66399;52.322;20.980;2023-03-14T20:50:26;8.20;;;3.80;;
77326;SDS011;66399;52.322;20.980;2023-03-14T20:54:32;8.40;;;3.80;;
77326;SDS011;66399;52.322;20.980;2023-03-14T20:58:37;11.40;;;4.70;;
77326;SDS011;66399;52.322;20.980;2023-03-14T21:02:42;9.90;;;3.80;;
77326;SDS011;66399;52.322;20.980;2023-03-14T21:07:05;10.70;;;4.00;;
77326;SDS011;66399;52.322;20.980;2023-03-14T21:11:10;9.40;;;4.30;;
77326;SDS011;66399;52.322;20.980;2023-03-14T21:15:15;9.10;;;3.70;;
77326;SDS011;66399;52.322;20.980;2023-03-14T21:19:20;9.90;;;4.50;;
77326;SDS011;66399;52.322;20.980;2023-03-14T21:23:33;9.20;;;3.90;;
77326;SDS011;66399;52.322;20.980;2023-03-14T21:27:38;13.50;;;4.60;;
77326;SDS011;66399;52.322;20.980;2023-03-14T21:31:43;7.80;;;3.60;;
77326;SDS011;66399;52.322;20.980;2023-03-14T21:35:50;8.10;;;3.80;;
77326;SDS011;66399;52.322;20.980;2023-03-14T21:39:56;7.00;;;3.60;;
77326;SDS011;66399;52.322;20.980;2023-03-14T21:44:01;7.50;;;3.30;;
77326;SDS011;66399;52.322;20.980;2023-03-14T21:48:06;7.40;;;3.70;;
77326;SDS011;66399;52.322;20.980;2023-03-14T21:52:12;6.20;;;3.10;;
77326;SDS011;66399;52.322;20.980;2023-03-14T21:56:17;9.40;;;3.60;;
77326;SDS011;66399;52.322;20.980;2023-03-14T22:00:23;4.90;;;2.90;;
77326;SDS011;66399;52.322;20.980;2023-03-14T22:04:29;6.70;;;3.60;;
77326;SDS011;66399;52.322;20.980;2023-03-14T22:08:37;7.80;;;3.40;;
77326;SDS011;66399;52.322;20.980;2023-03-14T22:12:42;7.90;;;4.20;;
77326;SDS011;66399;52.322;20.980;2023-03-14T22:16:48;7.80;;;3.60;;
77326;SDS011;66399;52.322;20.980;2023-03-14T22:20:53;6.90;;;3.30;;
77326;SDS011;66399;52.322;20.980;2023-03-14T22:24:58;6.50;;;4.10;;
77326;SDS011;66399;52.322;20.980;2023-03-14T22:29:03;6.50;;;3.40;;
77326;SDS011;66399;52.322;20.980;2023-03-14T22:33:08;7.80;;;4.00;;
77326;SDS011;66399;52.322;20.980;2023-03-14T22:37:13;7.90;;;3.90;;
77326;SDS011;66399;52.322;20.980;2023-03-14T22:41:18;7.20;;;3.70;;
77326;SDS011;66399;52.322;20.980;2023-03-14T22:45:24;8.80;;;3.70;;
77326;SDS011;66399;52.322;20.980;2023-03-14T22:49:30;7.60;;;3.70;;
77326;SDS011;66399;52.322;20.980;2023-03-14T22:53:35;9.90;;;3.60;;
77326;SDS011;66399;52.322;20.980;2023-03-14T22:57:41;6.90;;;3.10;;
77326;SDS011;66399;52.322;20.980;2023-03-14T23:01:46;9.10;;;3.60;;
77326;SDS011;66399;52.322;20.980;2023-03-14T23:05:51;7.30;;;3.70;;
77326;SDS011;66399;52.322;20.980;2023-03-14T23:14:00;7.30;;;3.30;;
77326;SDS011;66399;52.322;20.980;2023-03-14T23:18:06;7.20;;;3.50;;
77326;SDS011;66399;52.322;20.980;2023-03-14T23:22:11;7.70;;;3.50;;
77326;SDS011;66399;52.322;20.980;2023-03-14T23:26:17;6.50;;;3.30;;
77326;SDS011;66399;52.322;20.980;2023-03-14T23:30:24;6.60;;;3.40;;
77326;SDS011;66399;52.322;20.980;2023-03-14T23:34:30;7.30;;;3.40;;
77326;SDS011;66399;52.322;20.980;2023-03-14T23:38:35;7.10;;;3.30;;
77326;SDS011;66399;52.322;20.980;2023-03-14T23:42:40;6.60;;;3.20;;
77326;SDS011;66399;52.322;20.980;2023-03-14T23:46:45;6.30;;;3.20;;
77326;SDS011;66399;52.322;20.980;2023-03-14T23:50:53;6.50;;;3.30;;
77326;SDS011;66399;52.322;20.980;2023-03-14T23:54:59;6.80;;;3.40;;
77326;SDS011;66399;52.322;20.980;2023-03-14T23:59:04;5.70;;;3.10;;
